الصفحة الرئيسية
METAR-TAF:

METAR-TAF

مطار :

هنديرسون, نيفادا, الولايات المتحدة

دائرة عرض: 35-58-35N, خط طول: 115-07-58W, ارتفاع: 749 متر

مراقبة الطقس الحالي

تاريخ ووقت الإصدار 51 دقيقة قبل الساعة 01:56UTC
ريح 4 عقدة من الشرق
درجة الحرارة 21°درجة مئوية
الرطوبة 25%
ضغط 1015 hPa
الرؤية: 16.1 كم
سماء صافية

METAR: KHND 150156Z 10004KT 10SM CLR 21/00 A2997 RMK AO2 SLP152 T02110000

زمن: 19:47 (02:47 UTC)

توقعات

تاريخ ووقت الإصدار 3ساعات و 27 دقيقة قبل الساعة 23:20UTC
التوقعات صالحة من15 الساعة 00 UTC إلى 15 الساعة 24 UTC
ريح 5 عقدةمن اتجاهات متغيرة
الرؤية: 10 كم
سماء صافية
من 15 الساعة 0300 UTC
ريح 5 عقدة من الجنوب الغربي
الرؤية: 10 كم
سماء صافية
من 15 الساعة 1400 UTC
ريح 4 عقدةمن اتجاهات متغيرة
الرؤية: 10 كم
سماء صافية
من 15 الساعة 2100 UTC
ريح 5 عقدة من الشرق
الرؤية: 10 كم
سماء صافية

TAF: KHND 142320Z 1500/1524 VRB05KT P6SM SKC FM150300 22005KT P6SM SKC FM151400 VRB04KT P6SM SKC FM152100 08005KT P6SM SKC

أرصاد الطقس والتوقعات من أكثر من 4000 مطار (تقارير الطقس للمطار METAR والتنبؤ بالطقس بالمطارTAF).

المحطات المتاحة هي النقط الصفراء والحمراء على الخريطة.

حرك المؤشر فوق النقطة لمعرفة اسم المحطة.

ثم انقر لمعرفة أرصاد وتوقعات الطقس.

لتغيير الخارطة: اضغط على الأزرار الخضراء مع رمز الصليب الأسود للتكبير. على الزر الأخضر مع شرطة للتصغير، أو على الأسهم الخضراء للخرائط المجاورة.


METAR-TAF: